TimeMST,TemperatureF,Dew PointF,Humidity,Sea Level PressureIn,VisibilityMPH,Wind Direction,Wind SpeedMPH,Gust SpeedMPH,PrecipitationIn,Events,Conditions,WindDirDegrees,DateUTC
12:56 AM,33.1,24.1,70,29.56,10.0,NE,3.5,-,N/A,,Overcast,50,2012-12-12 07:56:00
1:56 AM,33.1,25.0,72,29.57,10.0,ENE,6.9,-,N/A,,Overcast,70,2012-12-12 08:56:00
2:56 AM,34.0,26.1,73,29.55,10.0,ENE,9.2,-,N/A,,Overcast,60,2012-12-12 09:56:00
3:56 AM,35.1,27.0,72,29.55,10.0,NE,3.5,-,N/A,,Overcast,50,2012-12-12 10:56:00
4:56 AM,36.0,26.1,67,29.54,10.0,Calm,Calm,-,N/A,,Overcast,0,2012-12-12 11:56:00
5:56 AM,35.1,27.0,72,29.55,10.0,South,3.5,-,N/A,,Overcast,170,2012-12-12 12:56:00
6:56 AM,36.0,28.9,76,29.57,10.0,NE,4.6,-,N/A,,Overcast,40,2012-12-12 13:56:00
7:08 AM,35.6,28.4,75,29.53,10.0,NE,9.2,-,0.00,,Overcast,40,2012-12-12 14:08:00
7:56 AM,33.1,30.9,92,29.58,6.0,SE,4.6,-,0.02,Snow,Light Snow,140,2012-12-12 14:56:00
8:21 AM,33.8,30.2,87,29.54,2.5,ESE,5.8,-,0.01,Snow,Light Snow,120,2012-12-12 15:21:00
8:46 AM,33.8,30.2,87,29.54,4.0,SE,4.6,-,0.02,Snow,Light Snow,140,2012-12-12 15:46:00
8:56 AM,33.1,30.9,92,29.60,4.0,SE,4.6,-,0.02,Snow,Light Snow,140,2012-12-12 15:56:00
9:18 AM,33.8,30.2,87,29.55,6.0,ESE,4.6,-,0.01,Snow,Light Snow,120,2012-12-12 16:18:00
9:47 AM,33.8,30.2,87,29.56,6.0,East,5.8,-,0.02,Snow,Light Snow,90,2012-12-12 16:47:00
9:56 AM,34.0,30.9,89,29.62,6.0,East,6.9,-,0.02,,Overcast,80,2012-12-12 16:56:00
10:56 AM,34.0,32.0,92,29.64,3.0,Calm,Calm,-,0.02,Snow,Light Snow,0,2012-12-12 17:56:00
11:04 AM,33.8,32.0,93,29.58,2.5,ENE,3.5,-,0.00,Snow,Light Snow,60,2012-12-12 18:04:00
11:23 AM,33.8,32.0,93,29.58,3.0,Calm,Calm,-,0.01,Snow,Light Snow,0,2012-12-12 18:23:00
11:39 AM,33.8,30.2,87,29.58,2.5,ENE,3.5,-,0.01,Snow,Light Snow,70,2012-12-12 18:39:00
11:46 AM,33.8,30.2,87,29.58,1.8,ENE,3.5,-,0.01,Snow,Light Snow,70,2012-12-12 18:46:00
11:56 AM,33.1,30.9,92,29.65,1.0,East,3.5,-,0.02,Snow,Light Snow,80,2012-12-12 18:56:00
12:10 PM,33.8,30.2,87,29.59,1.2,NE,3.5,-,0.01,Snow,Light Snow,50,2012-12-12 19:10:00
12:17 PM,33.8,30.2,87,29.59,1.8,Calm,Calm,-,0.01,Snow,Light Snow,0,2012-12-12 19:17:00
12:21 PM,33.8,30.2,87,29.59,1.2,North,3.5,-,0.01,Snow,Light Snow,350,2012-12-12 19:21:00
12:33 PM,33.8,30.2,87,29.60,0.8,Calm,Calm,-,0.02,Snow,Light Snow,0,2012-12-12 19:33:00
12:46 PM,33.8,30.2,87,29.60,0.2,Calm,Calm,-,0.04,Fog-Snow,Snow,0,2012-12-12 19:46:00
12:50 PM,32.0,30.2,93,29.60,0.5,NW,3.5,-,0.04,Fog-Snow,Snow,310,2012-12-12 19:50:00
12:56 PM,32.0,30.9,96,29.67,0.5,NW,4.6,-,0.05,Fog-Snow,Snow,310,2012-12-12 19:56:00
1:05 PM,32.0,30.2,93,29.60,0.2,WNW,6.9,-,0.01,Fog-Snow,Snow,300,2012-12-12 20:05:00
1:51 PM,32.0,30.2,93,29.63,0.5,NW,6.9,-,0.07,Fog-Snow,Snow,320,2012-12-12 20:51:00
1:56 PM,32.0,30.2,93,29.64,0.5,NW,5.8,-,N/A,Fog-Snow,Snow,310,2012-12-12 20:56:00
2:05 PM,32.0,30.2,93,29.65,1.0,West,5.8,-,0.00,Snow,Light Snow,260,2012-12-12 21:05:00
2:17 PM,32.0,30.2,93,29.66,1.0,WSW,6.9,-,0.00,Snow,Light Snow,250,2012-12-12 21:17:00
2:31 PM,33.8,30.2,87,29.67,0.8,WSW,6.9,-,0.01,Snow,Light Snow,250,2012-12-12 21:31:00
2:48 PM,32.0,30.2,93,29.68,1.0,WSW,6.9,-,0.01,Snow,Light Snow,240,2012-12-12 21:48:00
2:56 PM,32.0,30.9,96,29.76,1.2,WSW,6.9,-,0.01,Snow,Light Snow,250,2012-12-12 21:56:00
3:05 PM,32.0,30.2,93,29.69,1.0,WSW,8.1,-,0.00,Snow,Light Snow,250,2012-12-12 22:05:00
3:11 PM,32.0,30.2,93,29.70,0.8,WSW,8.1,-,0.01,Snow,Light Snow,240,2012-12-12 22:11:00
3:20 PM,32.0,30.2,93,29.70,1.2,WSW,8.1,-,N/A,Snow,Light Snow,240,2012-12-12 22:20:00
3:27 PM,32.0,30.2,93,29.70,2.0,SW,9.2,-,0.01,Snow,Light Snow,230,2012-12-12 22:27:00
3:38 PM,32.0,30.2,93,29.71,2.0,WSW,8.1,-,0.01,Snow,Light Snow,250,2012-12-12 22:38:00
3:56 PM,32.0,30.0,92,29.78,2.5,West,9.2,-,0.01,Snow,Light Snow,260,2012-12-12 22:56:00
4:11 PM,32.0,30.2,93,29.73,5.0,West,5.8,-,N/A,Snow,Light Snow,270,2012-12-12 23:11:00
4:56 PM,32.0,28.9,88,29.81,10.0,South,5.8,-,0.00,,Overcast,170,2012-12-12 23:56:00
5:06 PM,30.2,28.4,93,29.74,10.0,South,9.2,-,N/A,,Overcast,170,2012-12-13 00:06:00
5:56 PM,30.9,28.0,89,29.84,10.0,East,5.8,-,N/A,,Overcast,100,2012-12-13 00:56:00
6:56 PM,30.0,27.0,88,29.85,10.0,Calm,Calm,-,N/A,,Overcast,0,2012-12-13 01:56:00
7:56 PM,28.9,27.0,92,29.86,10.0,SSE,3.5,-,N/A,,Overcast,150,2012-12-13 02:56:00
8:56 PM,21.9,19.0,89,29.88,10.0,SSE,9.2,-,N/A,,Mostly Cloudy,150,2012-12-13 03:56:00
9:56 PM,24.1,21.0,88,29.90,10.0,Calm,Calm,-,N/A,,Overcast,0,2012-12-13 04:56:00
10:56 PM,24.1,21.0,88,29.93,10.0,SE,3.5,-,N/A,,Overcast,140,2012-12-13 05:56:00
11:23 PM,28.4,24.8,86,29.84,1.8,South,11.5,-,0.00,Snow,Light Snow,180,2012-12-13 06:23:00
11:28 PM,28.4,26.6,93,29.84,0.8,South,9.2,-,0.00,Snow,Light Snow,170,2012-12-13 06:28:00
11:41 PM,28.4,26.6,93,29.82,1.2,ESE,11.5,-,0.00,Snow,Light Snow,110,2012-12-13 06:41:00
11:44 PM,28.4,26.6,93,29.82,2.0,ESE,11.5,-,0.00,Snow,Light Snow,110,2012-12-13 06:44:00
11:53 PM,28.4,26.6,93,29.82,9.0,ESE,10.4,-,0.00,,Overcast,110,2012-12-13 06:53:00
11:54 PM,28.0,26.1,92,29.91,9.0,ESE,10.4,-,0.00,,Overcast,110,2012-12-13 06:54:00